sensor_id;sensor_type;location;lat;lon;timestamp;pressure;altitude;pressure_sealevel;temperature;humidity
41632;BME280;37452;51.938;4.624;2023-01-28T00:00:28;79417.72;;;-142.75;100.00
41632;BME280;37452;51.938;4.624;2023-01-28T00:02:53;79415.75;;;-142.75;100.00
41632;BME280;37452;51.938;4.624;2023-01-28T00:05:19;79433.47;;;-142.75;100.00
41632;BME280;37452;51.938;4.624;2023-01-28T00:07:44;79433.47;;;-142.75;100.00
41632;BME280;37452;51.938;4.624;2023-01-28T00:10:10;79425.59;;;-142.75;100.00
41632;BME280;37452;51.938;4.624;2023-01-28T00:12:35;79421.66;;;-142.75;100.00
41632;BME280;37452;51.938;4.624;2023-01-28T00:15:01;79425.59;;;-142.75;100.00
41632;BME280;37452;51.938;4.624;2023-01-28T00:17:27;79433.47;;;-142.75;100.00
41632;BME280;37452;51.938;4.624;2023-01-28T00:19:53;79429.53;;;-142.75;100.00
41632;BME280;37452;51.938;4.624;2023-01-28T00:22:18;79423.63;;;-142.75;100.00
41632;BME280;37452;51.938;4.624;2023-01-28T00:24:44;79431.50;;;-142.75;100.00
41632;BME280;37452;51.938;4.624;2023-01-28T00:27:10;79425.59;;;-142.75;100.00
41632;BME280;37452;51.938;4.624;2023-01-28T00:29:35;79435.44;;;-142.75;100.00
41632;BME280;37452;51.938;4.624;2023-01-28T00:32:00;79417.72;;;-142.75;100.00
41632;BME280;37452;51.938;4.624;2023-01-28T00:34:26;79421.66;;;-142.75;100.00
41632;BME280;37452;51.938;4.624;2023-01-28T00:36:51;79425.59;;;-142.75;100.00
41632;BME280;37452;51.938;4.624;2023-01-28T00:39:25;79425.59;;;-142.75;100.00
41632;BME280;37452;51.938;4.624;2023-01-28T00:41:51;79457.13;;;-142.75;100.00
41632;BME280;37452;51.938;4.624;2023-01-28T00:44:18;79449.25;;;-142.75;100.00
41632;BME280;37452;51.938;4.624;2023-01-28T00:46:43;79449.25;;;-142.75;100.00
41632;BME280;37452;51.938;4.624;2023-01-28T00:49:09;79451.22;;;-142.75;100.00
41632;BME280;37452;51.938;4.624;2023-01-28T00:51:34;79476.81;;;-142.75;100.00
41632;BME280;37452;51.938;4.624;2023-01-28T00:54:00;79492.56;;;-142.75;100.00
41632;BME280;37452;51.938;4.624;2023-01-28T00:56:26;79494.53;;;-142.75;100.00
41632;BME280;37452;51.938;4.624;2023-01-28T00:58:51;79478.78;;;-142.75;100.00
41632;BME280;37452;51.938;4.624;2023-01-28T01:01:25;79484.69;;;-142.75;100.00
41632;BME280;37452;51.938;4.624;2023-01-28T01:03:51;79478.78;;;-142.75;100.00
41632;BME280;37452;51.938;4.624;2023-01-28T01:06:23;79466.97;;;-142.75;100.00
41632;BME280;37452;51.938;4.624;2023-01-28T01:08:48;79461.06;;;-142.75;100.00
41632;BME280;37452;51.938;4.624;2023-01-28T01:11:14;79459.09;;;-142.75;100.00
41632;BME280;37452;51.938;4.624;2023-01-28T01:13:40;79451.22;;;-142.75;100.00
41632;BME280;37452;51.938;4.624;2023-01-28T01:16:13;79449.25;;;-142.75;100.00
41632;BME280;37452;51.938;4.624;2023-01-28T01:18:41;79445.28;;;-142.75;100.00
41632;BME280;37452;51.938;4.624;2023-01-28T01:21:08;79443.31;;;-142.75;100.00
41632;BME280;37452;51.938;4.624;2023-01-28T01:23:34;79441.34;;;-142.75;100.00
41632;BME280;37452;51.938;4.624;2023-01-28T01:25:59;79435.44;;;-142.75;100.00
41632;BME280;37452;51.938;4.624;2023-01-28T01:28:25;79429.53;;;-142.75;100.00
41632;BME280;37452;51.938;4.624;2023-01-28T01:31:01;79427.56;;;-142.75;100.00
41632;BME280;37452;51.938;4.624;2023-01-28T01:33:28;79439.38;;;-142.75;100.00
41632;BME280;37452;51.938;4.624;2023-01-28T01:35:54;79445.28;;;-142.75;100.00
41632;BME280;37452;51.938;4.624;2023-01-28T01:38:20;79431.50;;;-142.75;100.00
41632;BME280;37452;51.938;4.624;2023-01-28T01:40:45;79433.47;;;-142.75;100.00
41632;BME280;37452;51.938;4.624;2023-01-28T01:43:21;79484.69;;;-142.75;100.00
41632;BME280;37452;51.938;4.624;2023-01-28T01:45:57;79504.41;;;-142.75;100.00
41632;BME280;37452;51.938;4.624;2023-01-28T01:48:31;79514.25;;;-142.75;100.00
41632;BME280;37452;51.938;4.624;2023-01-28T01:51:05;79490.59;;;-142.75;100.00
41632;BME280;37452;51.938;4.624;2023-01-28T01:53:36;79524.09;;;-142.75;100.00
41632;BME280;37452;51.938;4.624;2023-01-28T01:56:05;79518.19;;;-142.75;100.00
41632;BME280;37452;51.938;4.624;2023-01-28T01:58:34;79522.13;;;-142.75;100.00
41632;BME280;37452;51.938;4.624;2023-01-28T02:01:02;79500.47;;;-142.75;100.00
41632;BME280;37452;51.938;4.624;2023-01-28T02:03:32;79488.63;;;-142.75;100.00
41632;BME280;37452;51.938;4.624;2023-01-28T02:06:01;79496.50;;;-142.75;100.00
41632;BME280;37452;51.938;4.624;2023-01-28T02:08:27;79484.69;;;-142.75;100.00
41632;BME280;37452;51.938;4.624;2023-01-28T02:11:03;79472.88;;;-142.75;100.00
41632;BME280;37452;51.938;4.624;2023-01-28T02:13:31;79480.75;;;-142.75;100.00
41632;BME280;37452;51.938;4.624;2023-01-28T02:15:59;79502.44;;;-142.75;100.00
41632;BME280;37452;51.938;4.624;2023-01-28T02:18:25;79486.66;;;-142.75;100.00
41632;BME280;37452;51.938;4.624;2023-01-28T02:26:48;79490.59;;;-142.75;100.00
41632;BME280;37452;51.938;4.624;2023-01-28T02:29:33;79504.41;;;-142.75;100.00
41632;BME280;37452;51.938;4.624;2023-01-28T02:34:35;79533.94;;;-142.75;100.00
41632;BME280;37452;51.938;4.624;2023-01-28T02:39:39;79530.00;;;-142.75;100.00
41632;BME280;37452;51.938;4.624;2023-01-28T02:42:10;79533.94;;;-142.75;100.00
41632;BME280;37452;51.938;4.624;2023-01-28T02:44:38;79512.28;;;-142.75;100.00
41632;BME280;37452;51.938;4.624;2023-01-28T02:47:11;79504.41;;;-142.75;100.00
41632;BME280;37452;51.938;4.624;2023-01-28T02:49:58;79518.19;;;-142.75;100.00
41632;BME280;37452;51.938;4.624;2023-01-28T02:58:58;79520.16;;;-142.75;100.00
41632;BME280;37452;51.938;4.624;2023-01-28T03:01:26;79510.31;;;-142.75;100.00
41632;BME280;37452;51.938;4.624;2023-01-28T03:04:03;79539.84;;;-142.75;100.00
41632;BME280;37452;51.938;4.624;2023-01-28T03:06:54;79514.25;;;-142.75;100.00
41632;BME280;37452;51.938;4.624;2023-01-28T03:09:22;79508.34;;;-142.75;100.00
41632;BME280;37452;51.938;4.624;2023-01-28T03:12:04;79500.47;;;-142.75;100.00
41632;BME280;37452;51.938;4.624;2023-01-28T03:14:53;79492.56;;;-142.75;100.00
41632;BME280;37452;51.938;4.624;2023-01-28T03:17:43;79488.63;;;-142.75;100.00
41632;BME280;37452;51.938;4.624;2023-01-28T03:20:44;79476.81;;;-142.75;100.00
41632;BME280;37452;51.938;4.624;2023-01-28T03:23:37;79478.78;;;-142.75;100.00
41632;BME280;37452;51.938;4.624;2023-01-28T03:26:25;79482.72;;;-142.75;100.00
41632;BME280;37452;51.938;4.624;2023-01-28T03:29:13;79484.69;;;-142.75;100.00
41632;BME280;37452;51.938;4.624;2023-01-28T03:31:58;79468.94;;;-142.75;100.00
41632;BME280;37452;51.938;4.624;2023-01-28T03:34:43;79488.63;;;-142.75;100.00
41632;BME280;37452;51.938;4.624;2023-01-28T03:37:28;79482.72;;;-142.75;100.00
41632;BME280;37452;51.938;4.624;2023-01-28T03:39:54;79474.84;;;-142.75;100.00
41632;BME280;37452;51.938;4.624;2023-01-28T03:42:22;79486.66;;;-142.75;100.00
41632;BME280;37452;51.938;4.624;2023-01-28T03:44:47;79528.03;;;-142.75;100.00
41632;BME280;37452;51.938;4.624;2023-01-28T03:49:46;79504.41;;;-142.75;100.00
41632;BME280;37452;51.938;4.624;2023-01-28T03:52:17;79484.69;;;-142.75;100.00
41632;BME280;37452;51.938;4.624;2023-01-28T03:54:46;79484.69;;;-142.75;100.00
41632;BME280;37452;51.938;4.624;2023-01-28T03:57:17;79478.78;;;-142.75;100.00
41632;BME280;37452;51.938;4.624;2023-01-28T03:59:43;79484.69;;;-142.75;100.00
41632;BME280;37452;51.938;4.624;2023-01-28T04:02:09;79484.69;;;-142.75;100.00
41632;BME280;37452;51.938;4.624;2023-01-28T04:04:39;79490.59;;;-142.75;100.00
41632;BME280;37452;51.938;4.624;2023-01-28T04:07:06;79484.69;;;-142.75;100.00
41632;BME280;37452;51.938;4.624;2023-01-28T04:09:39;79490.59;;;-142.75;100.00
41632;BME280;37452;51.938;4.624;2023-01-28T04:12:05;79496.50;;;-142.75;100.00
41632;BME280;37452;51.938;4.624;2023-01-28T04:14:31;79504.41;;;-142.75;100.00
41632;BME280;37452;51.938;4.624;2023-01-28T04:16:56;79504.41;;;-142.75;100.00
41632;BME280;37452;51.938;4.624;2023-01-28T04:19:22;79516.22;;;-142.75;100.00
41632;BME280;37452;51.938;4.624;2023-01-28T04:21:48;79533.94;;;-142.75;100.00
41632;BME280;37452;51.938;4.624;2023-01-28T04:24:15;79533.94;;;-142.75;100.00
41632;BME280;37452;51.938;4.624;2023-01-28T04:26:40;79543.78;;;-142.75;100.00
41632;BME280;37452;51.938;4.624;2023-01-28T04:29:06;79549.69;;;-142.75;100.00
41632;BME280;37452;51.938;4.624;2023-01-28T04:31:32;79537.88;;;-142.75;100.00
41632;BME280;37452;51.938;4.624;2023-01-28T04:33:58;79531.97;;;-142.75;100.00
41632;BME280;37452;51.938;4.624;2023-01-28T04:36:24;79543.78;;;-142.75;100.00
41632;BME280;37452;51.938;4.624;2023-01-28T04:38:49;79535.91;;;-142.75;100.00
41632;BME280;37452;51.938;4.624;2023-01-28T04:41:15;79528.03;;;-142.75;100.00
41632;BME280;37452;51.938;4.624;2023-01-28T04:43:40;79528.03;;;-142.75;100.00
41632;BME280;37452;51.938;4.624;2023-01-28T04:46:06;79524.09;;;-142.75;100.00
41632;BME280;37452;51.938;4.624;2023-01-28T04:48:32;79516.22;;;-142.75;100.00
41632;BME280;37452;51.938;4.624;2023-01-28T04:50:59;79512.28;;;-142.75;100.00
41632;BME280;37452;51.938;4.624;2023-01-28T04:53:24;79520.16;;;-142.75;100.00
41632;BME280;37452;51.938;4.624;2023-01-28T04:55:50;79504.41;;;-142.75;100.00
41632;BME280;37452;51.938;4.624;2023-01-28T04:58:15;79520.16;;;-142.75;100.00
41632;BME280;37452;51.938;4.624;2023-01-28T05:00:40;79516.22;;;-142.75;100.00
41632;BME280;37452;51.938;4.624;2023-01-28T05:03:05;79545.75;;;-142.75;100.00
41632;BME280;37452;51.938;4.624;2023-01-28T05:05:31;79598.94;;;-142.75;100.00
41632;BME280;37452;51.938;4.624;2023-01-28T05:07:56;79583.19;;;-142.75;100.00
41632;BME280;37452;51.938;4.624;2023-01-28T05:10:22;79559.56;;;-142.75;100.00
41632;BME280;37452;51.938;4.624;2023-01-28T05:12:48;79571.38;;;-142.75;100.00
41632;BME280;37452;51.938;4.624;2023-01-28T05:15:17;79557.59;;;-142.75;100.00
41632;BME280;37452;51.938;4.624;2023-01-28T05:17:43;79561.53;;;-142.75;100.00
41632;BME280;37452;51.938;4.624;2023-01-28T05:20:10;79573.34;;;-142.75;100.00
41632;BME280;37452;51.938;4.624;2023-01-28T05:22:37;79563.50;;;-142.75;100.00
41632;BME280;37452;51.938;4.624;2023-01-28T05:25:02;79555.63;;;-142.75;100.00
41632;BME280;37452;51.938;4.624;2023-01-28T05:27:28;79551.69;;;-142.75;100.00
41632;BME280;37452;51.938;4.624;2023-01-28T05:29:54;79561.53;;;-142.75;100.00
41632;BME280;37452;51.938;4.624;2023-01-28T05:32:19;79569.41;;;-142.75;100.00
41632;BME280;37452;51.938;4.624;2023-01-28T05:34:44;79569.41;;;-142.75;100.00
41632;BME280;37452;51.938;4.624;2023-01-28T05:37:09;79612.75;;;-142.75;100.00
41632;BME280;37452;51.938;4.624;2023-01-28T05:39:35;79608.81;;;-142.75;100.00
41632;BME280;37452;51.938;4.624;2023-01-28T05:42:00;79602.88;;;-142.75;100.00
41632;BME280;37452;51.938;4.624;2023-01-28T05:44:26;79593.03;;;-142.75;100.00
41632;BME280;37452;51.938;4.624;2023-01-28T05:46:51;79583.19;;;-142.75;100.00
41632;BME280;37452;51.938;4.624;2023-01-28T05:49:16;79581.22;;;-142.75;100.00
41632;BME280;37452;51.938;4.624;2023-01-28T05:51:42;79573.34;;;-142.75;100.00
41632;BME280;37452;51.938;4.624;2023-01-28T05:54:07;79563.50;;;-142.75;100.00
41632;BME280;37452;51.938;4.624;2023-01-28T05:56:33;79555.63;;;-142.75;100.00
41632;BME280;37452;51.938;4.624;2023-01-28T05:59:03;79555.63;;;-142.75;100.00
41632;BME280;37452;51.938;4.624;2023-01-28T06:01:29;79567.44;;;-142.75;100.00
41632;BME280;37452;51.938;4.624;2023-01-28T06:03:55;79553.63;;;-142.75;100.00
41632;BME280;37452;51.938;4.624;2023-01-28T06:06:20;79549.69;;;-142.75;100.00
41632;BME280;37452;51.938;4.624;2023-01-28T06:08:45;79547.72;;;-142.75;100.00
41632;BME280;37452;51.938;4.624;2023-01-28T06:11:11;79579.25;;;-142.75;100.00
41632;BME280;37452;51.938;4.624;2023-01-28T06:13:36;79565.47;;;-142.75;100.00
41632;BME280;37452;51.938;4.624;2023-01-28T06:16:02;79567.44;;;-142.75;100.00
41632;BME280;37452;51.938;4.624;2023-01-28T06:18:27;79595.00;;;-142.75;100.00
41632;BME280;37452;51.938;4.624;2023-01-28T06:20:53;79620.63;;;-142.75;100.00
41632;BME280;37452;51.938;4.624;2023-01-28T06:23:18;79600.91;;;-142.75;100.00
41632;BME280;37452;51.938;4.624;2023-01-28T06:25:43;79589.09;;;-142.75;100.00
41632;BME280;37452;51.938;4.624;2023-01-28T06:28:09;79598.94;;;-142.75;100.00
41632;BME280;37452;51.938;4.624;2023-01-28T06:30:34;79598.94;;;-142.75;100.00
41632;BME280;37452;51.938;4.624;2023-01-28T06:32:59;79593.03;;;-142.75;100.00
41632;BME280;37452;51.938;4.624;2023-01-28T06:35:24;79604.88;;;-142.75;100.00
41632;BME280;37452;51.938;4.624;2023-01-28T06:37:51;79598.94;;;-142.75;100.00
41632;BME280;37452;51.938;4.624;2023-01-28T06:40:17;79598.94;;;-142.75;100.00
41632;BME280;37452;51.938;4.624;2023-01-28T06:42:42;79636.38;;;-142.75;100.00
41632;BME280;37452;51.938;4.624;2023-01-28T06:45:08;79624.56;;;-142.75;100.00
41632;BME280;37452;51.938;4.624;2023-01-28T06:47:33;79606.84;;;-142.75;100.00
41632;BME280;37452;51.938;4.624;2023-01-28T06:49:58;79606.84;;;-142.75;100.00
41632;BME280;37452;51.938;4.624;2023-01-28T06:52:24;79596.97;;;-142.75;100.00
41632;BME280;37452;51.938;4.624;2023-01-28T06:54:49;79595.00;;;-142.75;100.00
41632;BME280;37452;51.938;4.624;2023-01-28T06:57:14;79591.06;;;-142.75;100.00
41632;BME280;37452;51.938;4.624;2023-01-28T06:59:40;79602.88;;;-142.75;100.00
41632;BME280;37452;51.938;4.624;2023-01-28T07:02:05;79600.91;;;-142.75;100.00
41632;BME280;37452;51.938;4.624;2023-01-28T07:04:31;79606.84;;;-142.75;100.00
41632;BME280;37452;51.938;4.624;2023-01-28T07:06:56;79595.00;;;-142.75;100.00
41632;BME280;37452;51.938;4.624;2023-01-28T07:09:21;79602.88;;;-142.75;100.00
41632;BME280;37452;51.938;4.624;2023-01-28T07:11:46;79606.84;;;-142.75;100.00
41632;BME280;37452;51.938;4.624;2023-01-28T07:14:12;79606.84;;;-142.75;100.00
41632;BME280;37452;51.938;4.624;2023-01-28T07:16:37;79610.78;;;-142.75;100.00
41632;BME280;37452;51.938;4.624;2023-01-28T07:19:02;79595.00;;;-142.75;100.00
41632;BME280;37452;51.938;4.624;2023-01-28T07:21:28;79616.69;;;-142.75;100.00
41632;BME280;37452;51.938;4.624;2023-01-28T07:23:53;79598.94;;;-142.75;100.00
41632;BME280;37452;51.938;4.624;2023-01-28T07:26:18;79595.00;;;-142.75;100.00
41632;BME280;37452;51.938;4.624;2023-01-28T07:28:44;79598.94;;;-142.75;100.00
41632;BME280;37452;51.938;4.624;2023-01-28T07:31:09;79585.16;;;-142.75;100.00
41632;BME280;37452;51.938;4.624;2023-01-28T07:33:35;79583.19;;;-142.75;100.00
41632;BME280;37452;51.938;4.624;2023-01-28T07:36:00;79579.25;;;-142.75;100.00
41632;BME280;37452;51.938;4.624;2023-01-28T07:38:26;79571.38;;;-142.75;100.00
41632;BME280;37452;51.938;4.624;2023-01-28T07:40:51;79587.13;;;-142.75;100.00
41632;BME280;37452;51.938;4.624;2023-01-28T07:43:16;79602.88;;;-142.75;100.00
41632;BME280;37452;51.938;4.624;2023-01-28T07:45:42;79654.13;;;-142.75;100.00
41632;BME280;37452;51.938;4.624;2023-01-28T07:48:10;79634.41;;;-142.75;100.00
41632;BME280;37452;51.938;4.624;2023-01-28T07:50:36;79622.59;;;-142.75;100.00
41632;BME280;37452;51.938;4.624;2023-01-28T07:53:07;79632.44;;;-142.75;100.00
41632;BME280;37452;51.938;4.624;2023-01-28T07:55:33;79630.47;;;-142.75;100.00
41632;BME280;37452;51.938;4.624;2023-01-28T07:58:02;79646.22;;;-142.75;100.00
41632;BME280;37452;51.938;4.624;2023-01-28T08:00:31;79622.59;;;-142.75;100.00
41632;BME280;37452;51.938;4.624;2023-01-28T08:03:04;79632.44;;;-142.75;100.00
41632;BME280;37452;51.938;4.624;2023-01-28T08:05:47;79610.78;;;-142.75;100.00
41632;BME280;37452;51.938;4.624;2023-01-28T08:08:13;79626.53;;;-142.75;100.00
41632;BME280;37452;51.938;4.624;2023-01-28T08:10:39;79638.34;;;-142.75;100.00
41632;BME280;37452;51.938;4.624;2023-01-28T08:13:06;79636.38;;;-142.75;100.00
41632;BME280;37452;51.938;4.624;2023-01-28T08:15:32;79642.28;;;-142.75;100.00
41632;BME280;37452;51.938;4.624;2023-01-28T08:17:58;79606.84;;;-142.75;100.00
41632;BME280;37452;51.938;4.624;2023-01-28T08:20:25;79575.31;;;-142.75;100.00
41632;BME280;37452;51.938;4.624;2023-01-28T08:22:51;79547.72;;;-142.75;100.00
41632;BME280;37452;51.938;4.624;2023-01-28T08:25:16;79543.78;;;-142.75;100.00
41632;BME280;37452;51.938;4.624;2023-01-28T08:27:42;79528.03;;;-142.75;100.00
41632;BME280;37452;51.938;4.624;2023-01-28T08:30:07;79567.44;;;-142.75;100.00
41632;BME280;37452;51.938;4.624;2023-01-28T08:32:34;79567.44;;;-142.75;100.00
41632;BME280;37452;51.938;4.624;2023-01-28T08:34:59;79563.50;;;-142.75;100.00
41632;BME280;37452;51.938;4.624;2023-01-28T08:37:25;79571.38;;;-142.75;100.00
41632;BME280;37452;51.938;4.624;2023-01-28T08:39:50;79606.84;;;-142.75;100.00
41632;BME280;37452;51.938;4.624;2023-01-28T08:42:16;79622.59;;;-142.75;100.00
41632;BME280;37452;51.938;4.624;2023-01-28T08:44:41;79642.28;;;-142.75;100.00
41632;BME280;37452;51.938;4.624;2023-01-28T08:47:07;79660.03;;;-142.75;100.00
41632;BME280;37452;51.938;4.624;2023-01-28T08:49:32;79658.06;;;-142.75;100.00
41632;BME280;37452;51.938;4.624;2023-01-28T08:51:57;79650.16;;;-142.75;100.00
41632;BME280;37452;51.938;4.624;2023-01-28T08:54:23;79646.22;;;-142.75;100.00
41632;BME280;37452;51.938;4.624;2023-01-28T08:56:48;79642.28;;;-142.75;100.00
41632;BME280;37452;51.938;4.624;2023-01-28T08:59:14;79626.53;;;-142.75;100.00
41632;BME280;37452;51.938;4.624;2023-01-28T09:01:39;79551.69;;;-142.75;100.00
41632;BME280;37452;51.938;4.624;2023-01-28T09:04:05;79524.09;;;-142.75;100.00
41632;BME280;37452;51.938;4.624;2023-01-28T09:06:30;79486.66;;;-142.75;100.00
41632;BME280;37452;51.938;4.624;2023-01-28T09:08:57;79490.59;;;-142.75;100.00
41632;BME280;37452;51.938;4.624;2023-01-28T09:11:22;79457.13;;;-142.75;100.00
41632;BME280;37452;51.938;4.624;2023-01-28T09:13:47;79441.34;;;-142.75;100.00
41632;BME280;37452;51.938;4.624;2023-01-28T09:16:13;79439.38;;;-142.75;100.00
41632;BME280;37452;51.938;4.624;2023-01-28T09:18:38;79437.41;;;-142.75;100.00
41632;BME280;37452;51.938;4.624;2023-01-28T09:21:05;79445.28;;;-142.75;100.00
41632;BME280;37452;51.938;4.624;2023-01-28T09:23:35;79461.06;;;-142.75;100.00
41632;BME280;37452;51.938;4.624;2023-01-28T09:26:02;79488.63;;;-142.75;100.00
41632;BME280;37452;51.938;4.624;2023-01-28T09:28:28;79494.53;;;-142.75;100.00
41632;BME280;37452;51.938;4.624;2023-01-28T09:30:59;79496.50;;;-142.75;100.00
41632;BME280;37452;51.938;4.624;2023-01-28T09:33:24;79518.19;;;-142.75;100.00
41632;BME280;37452;51.938;4.624;2023-01-28T09:35:49;79518.19;;;-142.75;100.00
41632;BME280;37452;51.938;4.624;2023-01-28T09:38:15;79504.41;;;-142.75;100.00
41632;BME280;37452;51.938;4.624;2023-01-28T09:40:42;79508.34;;;-142.75;100.00
41632;BME280;37452;51.938;4.624;2023-01-28T09:46:02;79506.38;;;-142.75;100.00
41632;BME280;37452;51.938;4.624;2023-01-28T09:48:42;79484.69;;;-142.75;100.00
41632;BME280;37452;51.938;4.624;2023-01-28T09:51:10;79466.97;;;-142.75;100.00
41632;BME280;37452;51.938;4.624;2023-01-28T09:53:42;79396.06;;;-142.75;100.00
41632;BME280;37452;51.938;4.624;2023-01-28T09:56:15;79356.66;;;-142.75;100.00
41632;BME280;37452;51.938;4.624;2023-01-28T09:58:44;79346.81;;;-142.75;100.00
41632;BME280;37452;51.938;4.624;2023-01-28T10:09:31;79163.63;;;-142.75;100.00
41632;BME280;37452;51.938;4.624;2023-01-28T10:17:53;79102.56;;;-142.75;96.22
41632;BME280;37452;51.938;4.624;2023-01-28T10:20:27;79073.00;;;-142.75;94.88
41632;BME280;37452;51.938;4.624;2023-01-28T10:25:30;79004.06;;;-142.75;90.04
41632;BME280;37452;51.938;4.624;2023-01-28T10:27:57;79002.09;;;-142.75;87.01
41632;BME280;37452;51.938;4.624;2023-01-28T10:30:25;78994.22;;;-142.75;88.33
41632;BME280;37452;51.938;4.624;2023-01-28T10:33:05;78986.34;;;-142.75;86.67
41632;BME280;37452;51.938;4.624;2023-01-28T10:35:38;78874.06;;;-142.75;84.56
41632;BME280;37452;51.938;4.624;2023-01-28T10:38:07;78948.91;;;-142.75;82.10
41632;BME280;37452;51.938;4.624;2023-01-28T10:40:34;78915.44;;;-142.75;80.92
41632;BME280;37452;51.938;4.624;2023-01-28T10:43:00;78933.16;;;-142.75;81.05
41632;BME280;37452;51.938;4.624;2023-01-28T10:45:25;78866.19;;;-142.75;80.73
41632;BME280;37452;51.938;4.624;2023-01-28T10:50:54;78933.16;;;-142.75;81.63
41632;BME280;37452;51.938;4.624;2023-01-28T10:56:08;78866.19;;;-142.75;81.57
41632;BME280;37452;51.938;4.624;2023-01-28T10:58:46;78830.75;;;-142.75;80.05
41632;BME280;37452;51.938;4.624;2023-01-28T11:01:12;78791.34;;;-142.75;78.16
41632;BME280;37452;51.938;4.624;2023-01-28T11:03:38;78769.69;;;-142.75;76.58
41632;BME280;37452;51.938;4.624;2023-01-28T11:06:05;78751.97;;;-142.75;77.30
41632;BME280;37452;51.938;4.624;2023-01-28T11:08:30;78797.25;;;-142.75;77.01
41632;BME280;37452;51.938;4.624;2023-01-28T11:10:56;78759.84;;;-142.75;75.49
41632;BME280;37452;51.938;4.624;2023-01-28T11:13:27;78759.84;;;-142.75;75.88
41632;BME280;37452;51.938;4.624;2023-01-28T11:15:59;78773.63;;;-142.75;76.66
41632;BME280;37452;51.938;4.624;2023-01-28T11:18:31;78732.25;;;-142.75;75.52
41632;BME280;37452;51.938;4.624;2023-01-28T11:21:03;78700.75;;;-142.75;74.00
41632;BME280;37452;51.938;4.624;2023-01-28T11:23:31;78769.69;;;-142.75;74.28
41632;BME280;37452;51.938;4.624;2023-01-28T11:26:17;78649.53;;;-142.75;75.10
41632;BME280;37452;51.938;4.624;2023-01-28T11:28:43;78663.31;;;-142.75;73.89
41632;BME280;37452;51.938;4.624;2023-01-28T11:31:14;78604.25;;;-142.75;72.02
41632;BME280;37452;51.938;4.624;2023-01-28T11:33:55;78637.72;;;-142.75;71.87
41632;BME280;37452;51.938;4.624;2023-01-28T11:36:27;78669.25;;;-142.75;74.63
41632;BME280;37452;51.938;4.624;2023-01-28T11:38:55;78633.78;;;-142.75;73.58
41632;BME280;37452;51.938;4.624;2023-01-28T11:41:32;78625.91;;;-142.75;72.07
41632;BME280;37452;51.938;4.624;2023-01-28T11:44:00;78562.88;;;-142.75;72.46
41632;BME280;37452;51.938;4.624;2023-01-28T11:46:57;78553.03;;;-142.75;73.10
41632;BME280;37452;51.938;4.624;2023-01-28T11:55:04;78499.88;;;-142.75;69.62
41632;BME280;37452;51.938;4.624;2023-01-28T12:00:39;78596.38;;;-142.75;72.88
41632;BME280;37452;51.938;4.624;2023-01-28T12:11:49;78570.75;;;-142.75;72.36
41632;BME280;37452;51.938;4.624;2023-01-28T12:25:29;78612.13;;;-142.75;72.32
41632;BME280;37452;51.938;4.624;2023-01-28T12:28:06;78659.38;;;-142.75;72.68
41632;BME280;37452;51.938;4.624;2023-01-28T12:33:36;78627.88;;;-142.75;73.30
41632;BME280;37452;51.938;4.624;2023-01-28T12:38:55;78588.50;;;-142.75;72.84
41632;BME280;37452;51.938;4.624;2023-01-28T12:41:27;78606.22;;;-142.75;72.66
41632;BME280;37452;51.938;4.624;2023-01-28T12:43:59;78578.63;;;-142.75;72.15
41632;BME280;37452;51.938;4.624;2023-01-28T12:46:52;78582.59;;;-142.75;73.33
41632;BME280;37452;51.938;4.624;2023-01-28T12:51:56;78521.53;;;-142.75;71.50
41632;BME280;37452;51.938;4.624;2023-01-28T12:54:30;78570.75;;;-142.75;71.34
41632;BME280;37452;51.938;4.624;2023-01-28T12:56:58;78523.50;;;-142.75;71.62
41632;BME280;37452;51.938;4.624;2023-01-28T13:03:00;78417.16;;;-142.75;67.75
41632;BME280;37452;51.938;4.624;2023-01-28T13:05:33;78478.19;;;-142.75;67.49
41632;BME280;37452;51.938;4.624;2023-01-28T13:08:10;78452.59;;;-142.75;69.52
41632;BME280;37452;51.938;4.624;2023-01-28T13:10:41;78409.28;;;-142.75;68.66
41632;BME280;37452;51.938;4.624;2023-01-28T13:15:44;78395.47;;;-142.75;66.53
41632;BME280;37452;51.938;4.624;2023-01-28T13:20:55;78503.81;;;-142.75;68.64
41632;BME280;37452;51.938;4.624;2023-01-28T13:23:42;78555.00;;;-142.75;70.27
41632;BME280;37452;51.938;4.624;2023-01-28T13:28:45;78472.28;;;-142.75;69.20
41632;BME280;37452;51.938;4.624;2023-01-28T13:31:12;78478.19;;;-142.75;68.12
41632;BME280;37452;51.938;4.624;2023-01-28T13:39:20;78547.13;;;-142.75;70.90
41632;BME280;37452;51.938;4.624;2023-01-28T13:41:49;78669.25;;;-142.75;73.77
41632;BME280;37452;51.938;4.624;2023-01-28T13:46:43;78803.16;;;-142.75;77.92
41632;BME280;37452;51.938;4.624;2023-01-28T13:49:13;78842.56;;;-142.75;80.05
41632;BME280;37452;51.938;4.624;2023-01-28T13:51:46;78885.88;;;-142.75;81.78
41632;BME280;37452;51.938;4.624;2023-01-28T13:54:17;78854.38;;;-142.75;82.11
41632;BME280;37452;51.938;4.624;2023-01-28T13:57:04;78901.66;;;-142.75;84.33
41632;BME280;37452;51.938;4.624;2023-01-28T14:02:39;78933.16;;;-142.75;85.59
41632;BME280;37452;51.938;4.624;2023-01-28T14:07:52;78988.31;;;-142.75;89.37
41632;BME280;37452;51.938;4.624;2023-01-28T14:10:26;79037.56;;;-142.75;91.19
41632;BME280;37452;51.938;4.624;2023-01-28T14:13:04;79059.22;;;-142.75;93.25
41632;BME280;37452;51.938;4.624;2023-01-28T14:15:48;79088.75;;;-142.75;95.63
41632;BME280;37452;51.938;4.624;2023-01-28T14:18:27;79098.63;;;-142.75;99.39
41632;BME280;37452;51.938;4.624;2023-01-28T14:20:54;79108.47;;;-142.75;99.65
41632;BME280;37452;51.938;4.624;2023-01-28T14:23:21;79157.72;;;-142.75;100.00
41632;BME280;37452;51.938;4.624;2023-01-28T14:31:32;79130.13;;;-142.75;100.00
41632;BME280;37452;51.938;4.624;2023-01-28T14:34:17;79112.41;;;-142.75;100.00